sensor_id;sensor_type;location;lat;lon;timestamp;P1;durP1;ratioP1;P2;durP2;ratioP2
59302;SDS011;45074;52.764;6.896;2023-07-31T00:00:03;4.88;;;2.10;;
59302;SDS011;45074;52.764;6.896;2023-07-31T00:02:29;5.97;;;2.13;;
59302;SDS011;45074;52.764;6.896;2023-07-31T00:04:55;6.55;;;2.42;;
59302;SDS011;45074;52.764;6.896;2023-07-31T00:07:21;5.00;;;2.22;;
59302;SDS011;45074;52.764;6.896;2023-07-31T00:09:47;6.03;;;2.35;;
59302;SDS011;45074;52.764;6.896;2023-07-31T00:12:13;4.63;;;2.40;;
59302;SDS011;45074;52.764;6.896;2023-07-31T00:14:39;5.03;;;2.20;;
59302;SDS011;45074;52.764;6.896;2023-07-31T00:17:05;4.65;;;2.25;;
59302;SDS011;45074;52.764;6.896;2023-07-31T00:19:31;6.57;;;2.95;;
59302;SDS011;45074;52.764;6.896;2023-07-31T00:21:57;5.15;;;2.20;;
59302;SDS011;45074;52.764;6.896;2023-07-31T00:24:23;6.68;;;2.40;;
59302;SDS011;45074;52.764;6.896;2023-07-31T00:26:49;5.75;;;2.53;;
59302;SDS011;45074;52.764;6.896;2023-07-31T00:29:18;6.57;;;2.50;;
59302;SDS011;45074;52.764;6.896;2023-07-31T00:31:44;7.47;;;2.60;;
59302;SDS011;45074;52.764;6.896;2023-07-31T00:34:10;5.30;;;2.30;;
59302;SDS011;45074;52.764;6.896;2023-07-31T00:36:36;5.35;;;2.55;;
59302;SDS011;45074;52.764;6.896;2023-07-31T00:39:02;5.00;;;2.55;;
59302;SDS011;45074;52.764;6.896;2023-07-31T00:41:29;5.00;;;2.45;;
59302;SDS011;45074;52.764;6.896;2023-07-31T00:43:55;5.80;;;2.65;;
59302;SDS011;45074;52.764;6.896;2023-07-31T00:46:21;5.35;;;2.40;;
59302;SDS011;45074;52.764;6.896;2023-07-31T00:48:48;4.43;;;2.10;;
59302;SDS011;45074;52.764;6.896;2023-07-31T00:51:14;4.57;;;2.35;;
59302;SDS011;45074;52.764;6.896;2023-07-31T00:53:40;5.65;;;2.42;;
59302;SDS011;45074;52.764;6.896;2023-07-31T00:56:07;4.32;;;2.33;;
59302;SDS011;45074;52.764;6.896;2023-07-31T00:58:33;4.97;;;2.30;;
59302;SDS011;45074;52.764;6.896;2023-07-31T01:00:59;6.47;;;2.95;;
59302;SDS011;45074;52.764;6.896;2023-07-31T01:03:25;4.78;;;2.40;;
59302;SDS011;45074;52.764;6.896;2023-07-31T01:11:34;5.57;;;2.58;;
59302;SDS011;45074;52.764;6.896;2023-07-31T01:14:13;3.70;;;2.20;;
59302;SDS011;45074;52.764;6.896;2023-07-31T01:16:39;4.07;;;2.15;;
59302;SDS011;45074;52.764;6.896;2023-07-31T01:19:06;4.43;;;2.20;;
59302;SDS011;45074;52.764;6.896;2023-07-31T01:26:26;3.38;;;1.80;;
59302;SDS011;45074;52.764;6.896;2023-07-31T01:29:02;3.60;;;2.10;;
59302;SDS011;45074;52.764;6.896;2023-07-31T01:31:33;4.93;;;2.13;;
59302;SDS011;45074;52.764;6.896;2023-07-31T01:34:01;4.15;;;1.98;;
59302;SDS011;45074;52.764;6.896;2023-07-31T01:36:28;3.17;;;1.75;;
59302;SDS011;45074;52.764;6.896;2023-07-31T01:38:58;6.30;;;4.10;;
59302;SDS011;45074;52.764;6.896;2023-07-31T01:41:25;4.17;;;3.77;;
59302;SDS011;45074;52.764;6.896;2023-07-31T01:43:51;5.85;;;3.13;;
59302;SDS011;45074;52.764;6.896;2023-07-31T01:46:17;3.50;;;2.10;;
59302;SDS011;45074;52.764;6.896;2023-07-31T01:48:43;3.83;;;1.98;;
59302;SDS011;45074;52.764;6.896;2023-07-31T01:51:09;2.88;;;1.70;;
59302;SDS011;45074;52.764;6.896;2023-07-31T01:53:35;3.38;;;1.40;;
59302;SDS011;45074;52.764;6.896;2023-07-31T01:56:01;1.98;;;1.13;;
59302;SDS011;45074;52.764;6.896;2023-07-31T01:58:27;2.47;;;1.50;;
59302;SDS011;45074;52.764;6.896;2023-07-31T02:00:53;4.28;;;3.38;;
59302;SDS011;45074;52.764;6.896;2023-07-31T02:03:19;2.45;;;1.30;;
59302;SDS011;45074;52.764;6.896;2023-07-31T02:05:48;3.17;;;1.33;;
59302;SDS011;45074;52.764;6.896;2023-07-31T02:08:15;2.22;;;1.40;;
59302;SDS011;45074;52.764;6.896;2023-07-31T02:10:41;2.75;;;2.05;;
59302;SDS011;45074;52.764;6.896;2023-07-31T02:13:07;3.90;;;3.25;;
59302;SDS011;45074;52.764;6.896;2023-07-31T02:15:33;4.65;;;4.13;;
59302;SDS011;45074;52.764;6.896;2023-07-31T02:17:59;3.60;;;2.10;;
59302;SDS011;45074;52.764;6.896;2023-07-31T02:20:25;3.08;;;1.50;;
59302;SDS011;45074;52.764;6.896;2023-07-31T02:22:51;2.67;;;1.52;;
59302;SDS011;45074;52.764;6.896;2023-07-31T02:25:17;3.15;;;1.80;;
59302;SDS011;45074;52.764;6.896;2023-07-31T02:27:43;3.13;;;1.67;;
59302;SDS011;45074;52.764;6.896;2023-07-31T02:30:10;3.13;;;1.80;;
59302;SDS011;45074;52.764;6.896;2023-07-31T02:32:36;2.92;;;1.83;;
59302;SDS011;45074;52.764;6.896;2023-07-31T02:35:02;3.65;;;3.30;;
59302;SDS011;45074;52.764;6.896;2023-07-31T02:37:28;2.97;;;1.70;;
59302;SDS011;45074;52.764;6.896;2023-07-31T02:39:54;2.88;;;1.67;;
59302;SDS011;45074;52.764;6.896;2023-07-31T02:42:20;3.00;;;1.90;;
59302;SDS011;45074;52.764;6.896;2023-07-31T02:44:46;2.95;;;1.60;;
59302;SDS011;45074;52.764;6.896;2023-07-31T02:47:12;2.38;;;1.63;;
59302;SDS011;45074;52.764;6.896;2023-07-31T02:49:38;2.40;;;1.60;;
59302;SDS011;45074;52.764;6.896;2023-07-31T02:52:04;3.67;;;1.95;;
59302;SDS011;45074;52.764;6.896;2023-07-31T02:54:30;3.78;;;1.90;;
59302;SDS011;45074;52.764;6.896;2023-07-31T02:56:56;3.45;;;1.80;;
59302;SDS011;45074;52.764;6.896;2023-07-31T02:59:22;3.08;;;1.80;;
59302;SDS011;45074;52.764;6.896;2023-07-31T03:01:48;2.72;;;1.58;;
59302;SDS011;45074;52.764;6.896;2023-07-31T03:04:14;3.33;;;1.45;;
59302;SDS011;45074;52.764;6.896;2023-07-31T03:06:40;2.70;;;1.50;;
59302;SDS011;45074;52.764;6.896;2023-07-31T03:09:06;3.35;;;1.40;;
59302;SDS011;45074;52.764;6.896;2023-07-31T03:11:32;2.58;;;1.40;;
59302;SDS011;45074;52.764;6.896;2023-07-31T03:13:58;2.22;;;1.30;;
59302;SDS011;45074;52.764;6.896;2023-07-31T03:16:24;2.20;;;1.35;;
59302;SDS011;45074;52.764;6.896;2023-07-31T03:18:50;2.38;;;1.50;;
59302;SDS011;45074;52.764;6.896;2023-07-31T03:21:16;3.00;;;1.50;;
59302;SDS011;45074;52.764;6.896;2023-07-31T03:23:42;4.65;;;1.65;;
59302;SDS011;45074;52.764;6.896;2023-07-31T03:26:08;3.33;;;1.63;;
59302;SDS011;45074;52.764;6.896;2023-07-31T03:28:34;2.95;;;1.60;;
59302;SDS011;45074;52.764;6.896;2023-07-31T03:31:00;3.13;;;1.60;;
59302;SDS011;45074;52.764;6.896;2023-07-31T03:33:26;4.13;;;1.70;;
59302;SDS011;45074;52.764;6.896;2023-07-31T03:35:52;3.53;;;1.83;;
59302;SDS011;45074;52.764;6.896;2023-07-31T03:38:19;4.40;;;1.95;;
59302;SDS011;45074;52.764;6.896;2023-07-31T03:40:45;4.18;;;1.80;;
59302;SDS011;45074;52.764;6.896;2023-07-31T03:43:11;2.83;;;1.50;;
59302;SDS011;45074;52.764;6.896;2023-07-31T03:45:37;2.80;;;1.50;;
59302;SDS011;45074;52.764;6.896;2023-07-31T03:48:03;2.72;;;1.60;;
59302;SDS011;45074;52.764;6.896;2023-07-31T03:50:29;2.50;;;1.60;;
59302;SDS011;45074;52.764;6.896;2023-07-31T03:52:55;3.05;;;1.48;;
59302;SDS011;45074;52.764;6.896;2023-07-31T03:55:21;2.10;;;1.30;;
59302;SDS011;45074;52.764;6.896;2023-07-31T03:57:47;3.58;;;1.40;;
59302;SDS011;45074;52.764;6.896;2023-07-31T04:00:14;3.53;;;1.27;;
59302;SDS011;45074;52.764;6.896;2023-07-31T04:02:40;3.20;;;1.40;;
59302;SDS011;45074;52.764;6.896;2023-07-31T04:05:07;2.28;;;1.48;;
59302;SDS011;45074;52.764;6.896;2023-07-31T04:07:33;2.35;;;1.48;;
59302;SDS011;45074;52.764;6.896;2023-07-31T04:09:59;2.20;;;1.30;;
59302;SDS011;45074;52.764;6.896;2023-07-31T04:12:25;2.45;;;1.38;;
59302;SDS011;45074;52.764;6.896;2023-07-31T04:14:51;3.13;;;1.45;;
59302;SDS011;45074;52.764;6.896;2023-07-31T04:17:17;3.55;;;1.65;;
59302;SDS011;45074;52.764;6.896;2023-07-31T04:19:43;5.03;;;4.60;;
59302;SDS011;45074;52.764;6.896;2023-07-31T04:22:09;2.53;;;1.27;;
59302;SDS011;45074;52.764;6.896;2023-07-31T04:24:35;2.10;;;1.23;;
59302;SDS011;45074;52.764;6.896;2023-07-31T04:27:01;2.20;;;1.40;;
59302;SDS011;45074;52.764;6.896;2023-07-31T04:29:28;2.30;;;1.20;;
59302;SDS011;45074;52.764;6.896;2023-07-31T04:31:53;1.92;;;1.10;;
59302;SDS011;45074;52.764;6.896;2023-07-31T04:34:19;3.17;;;1.20;;
59302;SDS011;45074;52.764;6.896;2023-07-31T04:36:45;3.17;;;1.17;;
59302;SDS011;45074;52.764;6.896;2023-07-31T04:39:11;2.42;;;1.10;;
59302;SDS011;45074;52.764;6.896;2023-07-31T04:41:37;2.17;;;1.00;;
59302;SDS011;45074;52.764;6.896;2023-07-31T04:44:03;1.55;;;1.02;;
59302;SDS011;45074;52.764;6.896;2023-07-31T04:46:29;3.22;;;1.20;;
59302;SDS011;45074;52.764;6.896;2023-07-31T04:48:56;3.45;;;1.40;;
59302;SDS011;45074;52.764;6.896;2023-07-31T04:51:22;4.40;;;1.40;;
59302;SDS011;45074;52.764;6.896;2023-07-31T04:53:48;5.47;;;1.58;;
59302;SDS011;45074;52.764;6.896;2023-07-31T04:56:15;4.03;;;1.25;;
59302;SDS011;45074;52.764;6.896;2023-07-31T04:58:41;5.40;;;2.00;;
59302;SDS011;45074;52.764;6.896;2023-07-31T05:01:07;4.70;;;1.83;;
59302;SDS011;45074;52.764;6.896;2023-07-31T05:03:33;8.23;;;2.70;;
59302;SDS011;45074;52.764;6.896;2023-07-31T05:05:59;7.57;;;2.92;;
59302;SDS011;45074;52.764;6.896;2023-07-31T05:08:25;10.45;;;3.67;;
59302;SDS011;45074;52.764;6.896;2023-07-31T05:10:51;12.10;;;3.88;;
59302;SDS011;45074;52.764;6.896;2023-07-31T05:13:17;11.88;;;4.20;;
59302;SDS011;45074;52.764;6.896;2023-07-31T05:15:43;12.50;;;4.70;;
59302;SDS011;45074;52.764;6.896;2023-07-31T05:18:09;12.57;;;4.93;;
59302;SDS011;45074;52.764;6.896;2023-07-31T05:20:35;12.35;;;5.00;;
59302;SDS011;45074;52.764;6.896;2023-07-31T05:23:01;13.63;;;5.43;;
59302;SDS011;45074;52.764;6.896;2023-07-31T05:25:27;13.57;;;5.30;;
59302;SDS011;45074;52.764;6.896;2023-07-31T05:27:53;15.65;;;5.50;;
59302;SDS011;45074;52.764;6.896;2023-07-31T05:30:19;17.20;;;5.45;;
59302;SDS011;45074;52.764;6.896;2023-07-31T05:32:46;15.52;;;5.45;;
59302;SDS011;45074;52.764;6.896;2023-07-31T05:35:12;17.70;;;5.95;;
59302;SDS011;45074;52.764;6.896;2023-07-31T05:37:38;18.98;;;6.40;;
59302;SDS011;45074;52.764;6.896;2023-07-31T05:40:04;17.80;;;6.63;;
59302;SDS011;45074;52.764;6.896;2023-07-31T05:42:30;22.15;;;6.97;;
59302;SDS011;45074;52.764;6.896;2023-07-31T05:44:56;21.35;;;7.07;;
59302;SDS011;45074;52.764;6.896;2023-07-31T05:47:22;22.88;;;7.32;;
59302;SDS011;45074;52.764;6.896;2023-07-31T05:49:48;18.90;;;7.32;;
59302;SDS011;45074;52.764;6.896;2023-07-31T05:52:17;21.85;;;7.30;;
59302;SDS011;45074;52.764;6.896;2023-07-31T05:54:43;17.98;;;6.93;;
59302;SDS011;45074;52.764;6.896;2023-07-31T05:57:11;19.83;;;7.20;;
59302;SDS011;45074;52.764;6.896;2023-07-31T05:59:37;18.83;;;7.60;;
59302;SDS011;45074;52.764;6.896;2023-07-31T06:02:03;19.63;;;7.93;;
59302;SDS011;45074;52.764;6.896;2023-07-31T06:04:29;18.73;;;7.70;;
59302;SDS011;45074;52.764;6.896;2023-07-31T06:06:56;20.00;;;8.43;;
59302;SDS011;45074;52.764;6.896;2023-07-31T06:09:21;21.48;;;8.05;;
59302;SDS011;45074;52.764;6.896;2023-07-31T06:11:47;22.95;;;8.30;;
59302;SDS011;45074;52.764;6.896;2023-07-31T06:14:14;19.58;;;8.38;;
59302;SDS011;45074;52.764;6.896;2023-07-31T06:16:40;25.13;;;8.40;;
59302;SDS011;45074;52.764;6.896;2023-07-31T06:19:06;19.48;;;8.50;;
59302;SDS011;45074;52.764;6.896;2023-07-31T06:21:32;23.17;;;9.57;;
59302;SDS011;45074;52.764;6.896;2023-07-31T06:23:58;17.85;;;8.60;;
59302;SDS011;45074;52.764;6.896;2023-07-31T06:26:24;21.20;;;9.07;;
59302;SDS011;45074;52.764;6.896;2023-07-31T06:28:50;17.92;;;8.52;;
59302;SDS011;45074;52.764;6.896;2023-07-31T06:31:16;21.98;;;8.98;;
59302;SDS011;45074;52.764;6.896;2023-07-31T06:33:45;18.80;;;8.82;;
59302;SDS011;45074;52.764;6.896;2023-07-31T06:36:11;20.02;;;9.02;;
59302;SDS011;45074;52.764;6.896;2023-07-31T06:38:37;21.05;;;8.80;;
59302;SDS011;45074;52.764;6.896;2023-07-31T06:41:03;19.50;;;8.85;;
59302;SDS011;45074;52.764;6.896;2023-07-31T06:43:29;21.23;;;8.85;;
59302;SDS011;45074;52.764;6.896;2023-07-31T06:45:55;21.17;;;8.82;;
59302;SDS011;45074;52.764;6.896;2023-07-31T06:48:21;20.38;;;7.97;;
59302;SDS011;45074;52.764;6.896;2023-07-31T06:50:47;22.10;;;8.38;;
59302;SDS011;45074;52.764;6.896;2023-07-31T06:53:13;19.67;;;8.35;;
59302;SDS011;45074;52.764;6.896;2023-07-31T06:55:39;20.25;;;8.40;;
59302;SDS011;45074;52.764;6.896;2023-07-31T06:58:05;22.17;;;8.52;;
59302;SDS011;45074;52.764;6.896;2023-07-31T07:00:31;20.67;;;8.60;;
59302;SDS011;45074;52.764;6.896;2023-07-31T07:02:58;21.52;;;7.97;;
59302;SDS011;45074;52.764;6.896;2023-07-31T07:05:24;18.65;;;8.40;;
59302;SDS011;45074;52.764;6.896;2023-07-31T07:07:50;21.45;;;7.80;;
59302;SDS011;45074;52.764;6.896;2023-07-31T07:10:17;17.25;;;7.57;;
59302;SDS011;45074;52.764;6.896;2023-07-31T07:12:43;18.17;;;7.25;;
59302;SDS011;45074;52.764;6.896;2023-07-31T07:15:09;18.92;;;7.55;;
59302;SDS011;45074;52.764;6.896;2023-07-31T07:17:35;17.25;;;6.97;;
59302;SDS011;45074;52.764;6.896;2023-07-31T07:20:01;19.80;;;7.65;;
59302;SDS011;45074;52.764;6.896;2023-07-31T07:22:28;14.80;;;6.22;;
59302;SDS011;45074;52.764;6.896;2023-07-31T07:24:54;15.18;;;6.45;;
59302;SDS011;45074;52.764;6.896;2023-07-31T07:27:21;14.88;;;5.82;;
59302;SDS011;45074;52.764;6.896;2023-07-31T07:29:47;16.38;;;6.45;;
59302;SDS011;45074;52.764;6.896;2023-07-31T07:32:13;17.40;;;5.78;;
59302;SDS011;45074;52.764;6.896;2023-07-31T07:34:39;14.20;;;6.28;;
59302;SDS011;45074;52.764;6.896;2023-07-31T07:37:05;13.90;;;5.95;;
59302;SDS011;45074;52.764;6.896;2023-07-31T07:39:31;11.50;;;5.97;;
59302;SDS011;45074;52.764;6.896;2023-07-31T07:41:57;13.88;;;5.80;;
59302;SDS011;45074;52.764;6.896;2023-07-31T07:44:23;12.52;;;5.65;;
59302;SDS011;45074;52.764;6.896;2023-07-31T07:46:49;17.33;;;10.52;;
59302;SDS011;45074;52.764;6.896;2023-07-31T07:49:15;13.40;;;5.55;;
59302;SDS011;45074;52.764;6.896;2023-07-31T07:51:41;10.68;;;5.75;;
59302;SDS011;45074;52.764;6.896;2023-07-31T07:54:07;10.80;;;5.68;;
59302;SDS011;45074;52.764;6.896;2023-07-31T07:56:33;13.40;;;6.00;;
59302;SDS011;45074;52.764;6.896;2023-07-31T07:59:01;12.80;;;6.07;;
59302;SDS011;45074;52.764;6.896;2023-07-31T08:01:27;12.60;;;5.75;;
59302;SDS011;45074;52.764;6.896;2023-07-31T08:03:53;12.13;;;5.60;;
59302;SDS011;45074;52.764;6.896;2023-07-31T08:06:19;10.52;;;5.25;;
59302;SDS011;45074;52.764;6.896;2023-07-31T08:08:46;10.45;;;5.00;;
59302;SDS011;45074;52.764;6.896;2023-07-31T08:11:12;10.07;;;5.28;;
59302;SDS011;45074;52.764;6.896;2023-07-31T08:13:38;12.93;;;5.20;;
59302;SDS011;45074;52.764;6.896;2023-07-31T08:16:04;11.18;;;4.80;;
59302;SDS011;45074;52.764;6.896;2023-07-31T08:18:31;10.85;;;5.10;;
59302;SDS011;45074;52.764;6.896;2023-07-31T08:20:57;9.88;;;4.80;;
59302;SDS011;45074;52.764;6.896;2023-07-31T08:23:23;9.30;;;4.18;;
59302;SDS011;45074;52.764;6.896;2023-07-31T08:25:49;9.25;;;6.20;;
59302;SDS011;45074;52.764;6.896;2023-07-31T08:28:15;10.40;;;4.32;;
59302;SDS011;45074;52.764;6.896;2023-07-31T08:30:41;8.52;;;4.40;;
59302;SDS011;45074;52.764;6.896;2023-07-31T08:33:07;9.60;;;4.10;;
59302;SDS011;45074;52.764;6.896;2023-07-31T08:35:33;9.07;;;4.22;;
59302;SDS011;45074;52.764;6.896;2023-07-31T08:37:59;9.15;;;4.63;;
59302;SDS011;45074;52.764;6.896;2023-07-31T08:40:25;10.05;;;4.10;;
59302;SDS011;45074;52.764;6.896;2023-07-31T08:42:53;11.02;;;4.38;;
59302;SDS011;45074;52.764;6.896;2023-07-31T08:45:21;8.00;;;3.88;;
59302;SDS011;45074;52.764;6.896;2023-07-31T08:47:48;7.45;;;3.60;;
59302;SDS011;45074;52.764;6.896;2023-07-31T08:50:16;8.07;;;3.88;;
59302;SDS011;45074;52.764;6.896;2023-07-31T08:52:46;6.65;;;3.67;;
59302;SDS011;45074;52.764;6.896;2023-07-31T08:55:12;6.10;;;3.22;;
59302;SDS011;45074;52.764;6.896;2023-07-31T08:57:39;6.38;;;3.10;;
59302;SDS011;45074;52.764;6.896;2023-07-31T09:00:05;6.38;;;2.90;;
59302;SDS011;45074;52.764;6.896;2023-07-31T09:02:46;6.70;;;3.20;;
59302;SDS011;45074;52.764;6.896;2023-07-31T09:05:23;5.20;;;2.75;;
59302;SDS011;45074;52.764;6.896;2023-07-31T09:07:50;6.63;;;2.65;;
59302;SDS011;45074;52.764;6.896;2023-07-31T09:10:16;6.50;;;2.90;;
59302;SDS011;45074;52.764;6.896;2023-07-31T09:12:42;5.80;;;2.80;;
59302;SDS011;45074;52.764;6.896;2023-07-31T09:15:08;8.15;;;2.90;;
59302;SDS011;45074;52.764;6.896;2023-07-31T09:17:35;6.07;;;2.55;;
59302;SDS011;45074;52.764;6.896;2023-07-31T09:20:17;6.57;;;2.38;;
59302;SDS011;45074;52.764;6.896;2023-07-31T09:22:44;5.68;;;2.50;;
59302;SDS011;45074;52.764;6.896;2023-07-31T09:25:14;4.32;;;2.33;;
59302;SDS011;45074;52.764;6.896;2023-07-31T09:27:48;5.30;;;3.97;;
59302;SDS011;45074;52.764;6.896;2023-07-31T09:30:22;4.43;;;2.35;;
59302;SDS011;45074;52.764;6.896;2023-07-31T09:32:49;3.42;;;1.98;;
59302;SDS011;45074;52.764;6.896;2023-07-31T09:35:28;4.22;;;1.77;;
59302;SDS011;45074;52.764;6.896;2023-07-31T09:37:58;3.28;;;1.85;;
59302;SDS011;45074;52.764;6.896;2023-07-31T09:40:45;3.25;;;2.05;;
59302;SDS011;45074;52.764;6.896;2023-07-31T09:43:13;3.25;;;1.75;;
59302;SDS011;45074;52.764;6.896;2023-07-31T09:45:46;2.83;;;1.70;;
59302;SDS011;45074;52.764;6.896;2023-07-31T09:48:16;3.28;;;1.70;;
59302;SDS011;45074;52.764;6.896;2023-07-31T09:53:12;3.28;;;1.90;;
59302;SDS011;45074;52.764;6.896;2023-07-31T09:55:39;9.10;;;8.48;;
59302;SDS011;45074;52.764;6.896;2023-07-31T09:58:07;2.25;;;1.63;;
59302;SDS011;45074;52.764;6.896;2023-07-31T10:00:34;2.92;;;1.50;;
59302;SDS011;45074;52.764;6.896;2023-07-31T10:03:01;2.60;;;1.40;;
59302;SDS011;45074;52.764;6.896;2023-07-31T10:05:36;2.67;;;1.35;;
59302;SDS011;45074;52.764;6.896;2023-07-31T10:08:06;2.70;;;1.45;;
59302;SDS011;45074;52.764;6.896;2023-07-31T10:10:32;4.32;;;1.52;;
59302;SDS011;45074;52.764;6.896;2023-07-31T10:12:59;2.70;;;1.60;;
59302;SDS011;45074;52.764;6.896;2023-07-31T10:15:26;3.70;;;1.80;;
59302;SDS011;45074;52.764;6.896;2023-07-31T10:17:52;2.80;;;1.50;;
59302;SDS011;45074;52.764;6.896;2023-07-31T10:20:19;2.83;;;1.80;;
59302;SDS011;45074;52.764;6.896;2023-07-31T10:22:46;2.88;;;1.92;;
59302;SDS011;45074;52.764;6.896;2023-07-31T10:25:12;3.22;;;2.10;;
59302;SDS011;45074;52.764;6.896;2023-07-31T10:27:38;3.55;;;1.88;;
59302;SDS011;45074;52.764;6.896;2023-07-31T10:30:05;3.67;;;1.85;;
59302;SDS011;45074;52.764;6.896;2023-07-31T10:32:36;3.58;;;2.00;;
59302;SDS011;45074;52.764;6.896;2023-07-31T10:35:05;3.28;;;2.00;;
59302;SDS011;45074;52.764;6.896;2023-07-31T10:37:36;3.40;;;2.20;;
59302;SDS011;45074;52.764;6.896;2023-07-31T10:40:17;3.60;;;2.10;;
59302;SDS011;45074;52.764;6.896;2023-07-31T10:42:48;3.97;;;2.20;;
59302;SDS011;45074;52.764;6.896;2023-07-31T10:48:04;3.50;;;2.22;;
59302;SDS011;45074;52.764;6.896;2023-07-31T10:50:54;3.03;;;1.92;;
59302;SDS011;45074;52.764;6.896;2023-07-31T10:53:30;3.55;;;1.95;;
59302;SDS011;45074;52.764;6.896;2023-07-31T10:56:00;3.03;;;2.05;;
59302;SDS011;45074;52.764;6.896;2023-07-31T10:58:26;3.53;;;2.20;;
59302;SDS011;45074;52.764;6.896;2023-07-31T11:00:56;3.60;;;1.90;;
59302;SDS011;45074;52.764;6.896;2023-07-31T11:03:27;3.70;;;2.10;;
59302;SDS011;45074;52.764;6.896;2023-07-31T11:06:06;3.25;;;2.92;;
59302;SDS011;45074;52.764;6.896;2023-07-31T11:08:35;3.28;;;2.30;;
59302;SDS011;45074;52.764;6.896;2023-07-31T11:11:06;3.13;;;1.90;;
59302;SDS011;45074;52.764;6.896;2023-07-31T11:16:00;3.47;;;3.17;;
59302;SDS011;45074;52.764;6.896;2023-07-31T11:18:26;3.08;;;2.08;;
59302;SDS011;45074;52.764;6.896;2023-07-31T11:20:52;5.78;;;2.50;;
59302;SDS011;45074;52.764;6.896;2023-07-31T11:23:19;3.63;;;2.30;;
59302;SDS011;45074;52.764;6.896;2023-07-31T11:25:45;3.47;;;2.13;;
59302;SDS011;45074;52.764;6.896;2023-07-31T11:28:12;3.95;;;2.30;;
59302;SDS011;45074;52.764;6.896;2023-07-31T11:30:39;3.13;;;2.10;;
59302;SDS011;45074;52.764;6.896;2023-07-31T11:33:06;3.75;;;2.03;;
59302;SDS011;45074;52.764;6.896;2023-07-31T11:35:33;3.55;;;2.45;;
59302;SDS011;45074;52.764;6.896;2023-07-31T11:38:07;3.20;;;1.90;;
59302;SDS011;45074;52.764;6.896;2023-07-31T11:40:40;3.80;;;2.00;;
59302;SDS011;45074;52.764;6.896;2023-07-31T11:43:07;3.70;;;1.90;;
59302;SDS011;45074;52.764;6.896;2023-07-31T11:45:33;3.97;;;3.30;;
59302;SDS011;45074;52.764;6.896;2023-07-31T11:48:00;3.83;;;2.00;;
59302;SDS011;45074;52.764;6.896;2023-07-31T11:50:26;2.42;;;1.77;;
59302;SDS011;45074;52.764;6.896;2023-07-31T11:52:55;2.45;;;1.85;;
59302;SDS011;45074;52.764;6.896;2023-07-31T11:55:24;4.20;;;2.40;;
59302;SDS011;45074;52.764;6.896;2023-07-31T11:57:51;3.25;;;2.15;;
59302;SDS011;45074;52.764;6.896;2023-07-31T12:00:18;3.70;;;2.40;;
59302;SDS011;45074;52.764;6.896;2023-07-31T12:02:44;4.90;;;2.45;;
59302;SDS011;45074;52.764;6.896;2023-07-31T12:05:10;3.63;;;2.33;;
59302;SDS011;45074;52.764;6.896;2023-07-31T12:07:44;3.95;;;2.10;;
59302;SDS011;45074;52.764;6.896;2023-07-31T12:10:11;3.38;;;1.92;;
59302;SDS011;45074;52.764;6.896;2023-07-31T12:12:37;3.75;;;1.67;;
59302;SDS011;45074;52.764;6.896;2023-07-31T12:15:05;5.63;;;1.90;;
59302;SDS011;45074;52.764;6.896;2023-07-31T12:17:39;4.40;;;2.40;;
59302;SDS011;45074;52.764;6.896;2023-07-31T12:20:05;5.03;;;2.40;;
59302;SDS011;45074;52.764;6.896;2023-07-31T12:22:32;4.53;;;2.13;;
59302;SDS011;45074;52.764;6.896;2023-07-31T12:24:58;4.90;;;2.50;;
59302;SDS011;45074;52.764;6.896;2023-07-31T12:27:24;3.70;;;2.28;;
59302;SDS011;45074;52.764;6.896;2023-07-31T12:29:51;4.18;;;2.50;;
59302;SDS011;45074;52.764;6.896;2023-07-31T12:32:23;4.68;;;2.60;;
59302;SDS011;45074;52.764;6.896;2023-07-31T12:34:50;4.82;;;3.00;;
59302;SDS011;45074;52.764;6.896;2023-07-31T12:37:16;6.18;;;3.38;;
59302;SDS011;45074;52.764;6.896;2023-07-31T12:39:42;5.00;;;3.28;;
59302;SDS011;45074;52.764;6.896;2023-07-31T12:42:08;7.35;;;4.10;;
59302;SDS011;45074;52.764;6.896;2023-07-31T12:44:33;8.02;;;4.13;;
59302;SDS011;45074;52.764;6.896;2023-07-31T12:46:59;7.55;;;4.43;;
59302;SDS011;45074;52.764;6.896;2023-07-31T12:49:25;8.02;;;4.60;;
59302;SDS011;45074;52.764;6.896;2023-07-31T12:51:51;8.07;;;4.68;;
59302;SDS011;45074;52.764;6.896;2023-07-31T12:54:18;8.27;;;5.15;;
59302;SDS011;45074;52.764;6.896;2023-07-31T12:56:44;8.90;;;5.32;;
59302;SDS011;45074;52.764;6.896;2023-07-31T12:59:10;8.65;;;4.72;;
59302;SDS011;45074;52.764;6.896;2023-07-31T13:01:36;7.13;;;3.42;;
59302;SDS011;45074;52.764;6.896;2023-07-31T13:04:02;5.63;;;2.88;;
59302;SDS011;45074;52.764;6.896;2023-07-31T13:06:28;5.28;;;2.95;;
59302;SDS011;45074;52.764;6.896;2023-07-31T13:08:54;6.25;;;2.88;;
59302;SDS011;45074;52.764;6.896;2023-07-31T13:11:20;5.15;;;2.80;;
59302;SDS011;45074;52.764;6.896;2023-07-31T13:13:46;5.95;;;2.60;;
59302;SDS011;45074;52.764;6.896;2023-07-31T13:16:12;6.95;;;5.80;;
59302;SDS011;45074;52.764;6.896;2023-07-31T13:18:38;5.40;;;2.90;;
59302;SDS011;45074;52.764;6.896;2023-07-31T13:21:04;6.43;;;3.38;;
59302;SDS011;45074;52.764;6.896;2023-07-31T13:23:30;7.63;;;4.72;;
59302;SDS011;45074;52.764;6.896;2023-07-31T13:25:56;8.43;;;5.22;;
59302;SDS011;45074;52.764;6.896;2023-07-31T13:28:22;7.32;;;4.70;;
59302;SDS011;45074;52.764;6.896;2023-07-31T13:30:48;8.13;;;4.70;;
59302;SDS011;45074;52.764;6.896;2023-07-31T13:33:14;8.02;;;4.80;;
59302;SDS011;45074;52.764;6.896;2023-07-31T13:35:40;8.27;;;4.70;;
59302;SDS011;45074;52.764;6.896;2023-07-31T13:38:06;7.30;;;4.18;;
59302;SDS011;45074;52.764;6.896;2023-07-31T13:40:32;8.07;;;4.57;;
59302;SDS011;45074;52.764;6.896;2023-07-31T13:42:58;5.65;;;3.80;;
59302;SDS011;45074;52.764;6.896;2023-07-31T13:45:24;6.28;;;4.30;;
59302;SDS011;45074;52.764;6.896;2023-07-31T13:47:50;7.50;;;4.50;;
59302;SDS011;45074;52.764;6.896;2023-07-31T13:50:16;7.13;;;4.20;;
59302;SDS011;45074;52.764;6.896;2023-07-31T13:52:44;7.75;;;4.43;;
59302;SDS011;45074;52.764;6.896;2023-07-31T13:55:10;8.50;;;5.28;;
59302;SDS011;45074;52.764;6.896;2023-07-31T13:57:37;6.78;;;3.67;;
59302;SDS011;45074;52.764;6.896;2023-07-31T14:00:03;7.18;;;3.30;;
59302;SDS011;45074;52.764;6.896;2023-07-31T14:02:29;6.97;;;4.85;;
59302;SDS011;45074;52.764;6.896;2023-07-31T14:04:55;5.53;;;3.75;;
59302;SDS011;45074;52.764;6.896;2023-07-31T14:07:21;7.13;;;4.78;;
59302;SDS011;45074;52.764;6.896;2023-07-31T14:09:47;8.40;;;4.95;;
59302;SDS011;45074;52.764;6.896;2023-07-31T14:12:13;9.90;;;5.43;;
59302;SDS011;45074;52.764;6.896;2023-07-31T14:14:39;12.00;;;8.43;;
59302;SDS011;45074;52.764;6.896;2023-07-31T14:17:05;8.45;;;5.47;;
59302;SDS011;45074;52.764;6.896;2023-07-31T14:19:31;11.40;;;4.90;;
59302;SDS011;45074;52.764;6.896;2023-07-31T14:21:58;8.55;;;5.05;;
59302;SDS011;45074;52.764;6.896;2023-07-31T14:24:24;8.15;;;4.47;;
59302;SDS011;45074;52.764;6.896;2023-07-31T14:26:50;8.25;;;4.47;;
59302;SDS011;45074;52.764;6.896;2023-07-31T14:29:16;6.57;;;4.28;;
59302;SDS011;45074;52.764;6.896;2023-07-31T14:31:42;7.32;;;3.88;;
59302;SDS011;45074;52.764;6.896;2023-07-31T14:34:08;7.78;;;3.83;;
59302;SDS011;45074;52.764;6.896;2023-07-31T14:36:34;6.35;;;3.83;;
59302;SDS011;45074;52.764;6.896;2023-07-31T14:39:00;8.32;;;4.18;;
59302;SDS011;45074;52.764;6.896;2023-07-31T14:41:26;8.70;;;4.30;;
59302;SDS011;45074;52.764;6.896;2023-07-31T14:43:52;8.40;;;4.20;;
59302;SDS011;45074;52.764;6.896;2023-07-31T14:46:18;10.00;;;4.10;;
59302;SDS011;45074;52.764;6.896;2023-07-31T14:48:44;6.15;;;3.85;;
59302;SDS011;45074;52.764;6.896;2023-07-31T14:51:10;6.88;;;3.83;;
59302;SDS011;45074;52.764;6.896;2023-07-31T14:53:36;8.05;;;3.50;;
59302;SDS011;45074;52.764;6.896;2023-07-31T14:56:02;8.07;;;3.53;;
59302;SDS011;45074;52.764;6.896;2023-07-31T14:58:28;6.70;;;3.35;;
59302;SDS011;45074;52.764;6.896;2023-07-31T15:00:54;6.65;;;3.47;;